Time;durP1;ratioP1;P1;durP2;ratioP2;P2;SDS_P1;SDS_P2;PMS_P1;PMS_P2;Temp;Humidity;BMP_temperature;BMP_pressure;BME280_temperature;BME280_humidity;BME280_pressure;Samples;Min_cycle;Max_cycle;Signal;HPM_P1;HPM_P2
2023/09/20 00:00:11;;;;;;;2.85;1.20;;;17.40;99.90;;;;;;5019323;28;20187;-79
2023/09/20 00:02:39;;;;;;;2.58;1.77;;;17.50;99.90;;;;;;5015073;28;20271;-78
2023/09/20 00:05:14;;;;;;;6.82;1.83;;;17.60;99.90;;;;;;5024844;28;20232;-78
2023/09/20 00:07:41;;;;;;;4.47;1.25;;;17.50;99.90;;;;;;5020138;28;20709;-77
2023/09/20 00:10:12;;;;;;;3.00;1.42;;;17.60;99.90;;;;;;5023853;28;20223;-77
2023/09/20 00:12:40;;;;;;;3.05;1.30;;;17.60;99.90;;;;;;5022434;28;20223;-77
2023/09/20 00:15:07;;;;;;;3.08;1.45;;;17.50;99.90;;;;;;5024050;28;20557;-77
2023/09/20 00:17:34;;;;;;;6.47;1.10;;;17.50;99.90;;;;;;5022242;28;20209;-77
2023/09/20 00:20:11;;;;;;;1.40;1.00;;;17.40;99.90;;;;;;5011210;28;20225;-78
2023/09/20 00:22:37;;;;;;;2.13;1.00;;;17.40;99.90;;;;;;5019614;28;20216;-77
2023/09/20 00:25:03;;;;;;;4.75;1.52;;;17.30;99.90;;;;;;5020767;28;20208;-77
2023/09/20 00:27:29;;;;;;;3.85;0.93;;;17.40;99.90;;;;;;5021577;28;20184;-77
2023/09/20 00:29:55;;;;;;;5.20;1.38;;;17.40;99.90;;;;;;5020978;28;20575;-77
2023/09/20 00:32:21;;;;;;;4.57;1.25;;;17.40;99.90;;;;;;5023517;28;20228;-77
2023/09/20 00:34:46;;;;;;;3.53;1.52;;;17.40;99.90;;;;;;5024105;28;20737;-77
2023/09/20 00:37:12;;;;;;;2.30;1.13;;;17.40;99.90;;;;;;5022238;28;20324;-75
2023/09/20 00:39:38;;;;;;;4.35;1.35;;;17.40;99.90;;;;;;5020218;28;20243;-77
2023/09/20 00:42:04;;;;;;;2.25;1.13;;;17.30;99.90;;;;;;5035585;28;20192;-77
2023/09/20 00:44:30;;;;;;;3.10;1.20;;;17.40;99.90;;;;;;5020559;28;20216;-77
2023/09/20 00:46:56;;;;;;;2.63;1.40;;;17.20;99.90;;;;;;5023538;28;20208;-77
2023/09/20 00:49:24;;;;;;;3.45;1.58;;;17.20;99.90;;;;;;5020362;28;20561;-77
2023/09/20 00:51:50;;;;;;;5.10;1.48;;;17.20;99.90;;;;;;5021717;28;20304;-78
2023/09/20 00:54:16;;;;;;;5.22;1.73;;;17.20;99.90;;;;;;5020846;28;20176;-79
2023/09/20 00:56:42;;;;;;;3.63;1.35;;;17.20;99.90;;;;;;5022446;28;20774;-77
2023/09/20 00:59:09;;;;;;;2.45;1.27;;;17.30;99.90;;;;;;5022324;28;20211;-78
2023/09/20 01:01:37;;;;;;;2.25;1.10;;;17.30;99.90;;;;;;5024092;28;20240;-78
2023/09/20 01:04:05;;;;;;;2.60;1.10;;;17.20;99.90;;;;;;5008578;28;20573;-76
2023/09/20 01:06:32;;;;;;;3.05;1.23;;;17.20;99.90;;;;;;5017694;28;20264;-77
2023/09/20 01:08:58;;;;;;;3.47;1.50;;;17.30;99.90;;;;;;5020825;28;20216;-77
2023/09/20 01:11:25;;;;;;;1.60;0.90;;;17.30;99.90;;;;;;5018551;28;20729;-77
2023/09/20 01:13:51;;;;;;;2.83;1.23;;;17.20;99.90;;;;;;5019114;28;20236;-78
2023/09/20 01:16:18;;;;;;;3.60;1.50;;;17.20;99.90;;;;;;5020731;28;20219;-78
2023/09/20 01:18:44;;;;;;;3.72;1.45;;;17.10;99.90;;;;;;5020658;28;20607;-77
2023/09/20 01:21:13;;;;;;;3.00;1.27;;;16.90;99.90;;;;;;5023570;28;20208;-77
2023/09/20 01:23:42;;;;;;;1.73;1.10;;;16.90;99.90;;;;;;5020038;28;20216;-78
2023/09/20 01:26:14;;;;;;;1.75;1.40;;;16.90;99.90;;;;;;5023145;28;20694;-78
2023/09/20 01:28:39;;;;;;;4.68;1.40;;;16.90;99.90;;;;;;5011466;28;20210;-77
2023/09/20 01:31:05;;;;;;;1.60;1.17;;;16.90;99.90;;;;;;5021041;28;20223;-78
2023/09/20 01:33:31;;;;;;;2.80;1.30;;;16.90;99.90;;;;;;5021426;28;20237;-77
2023/09/20 01:35:58;;;;;;;3.35;1.40;;;16.90;99.90;;;;;;5022668;28;20215;-78
2023/09/20 01:38:25;;;;;;;1.98;1.25;;;16.90;99.90;;;;;;5015762;28;20267;-78
2023/09/20 01:40:55;;;;;;;3.92;1.30;;;16.90;99.90;;;;;;5022754;28;20639;-77
2023/09/20 01:43:22;;;;;;;2.90;0.90;;;16.90;99.90;;;;;;5016687;28;20741;-77
2023/09/20 01:45:48;;;;;;;4.43;1.23;;;16.90;99.90;;;;;;5022840;28;20306;-76
2023/09/20 01:48:13;;;;;;;3.55;1.35;;;16.90;99.90;;;;;;5022201;28;20215;-77
2023/09/20 01:50:42;;;;;;;3.03;1.20;;;16.90;99.90;;;;;;5021407;28;20684;-77
2023/09/20 01:53:11;;;;;;;2.15;1.20;;;16.80;99.90;;;;;;5018935;28;20212;-78
2023/09/20 01:55:37;;;;;;;5.30;1.90;;;16.90;99.90;;;;;;5018178;28;20212;-78
2023/09/20 01:58:06;;;;;;;3.60;1.60;;;16.80;99.90;;;;;;5019978;28;20713;-77
2023/09/20 02:00:32;;;;;;;2.28;1.35;;;16.70;99.90;;;;;;5015328;28;20189;-78
2023/09/20 02:03:08;;;;;;;2.65;1.30;;;16.50;99.90;;;;;;5016117;28;20616;-77
2023/09/20 02:05:36;;;;;;;3.22;1.27;;;16.60;99.90;;;;;;5018760;28;20197;-78
2023/09/20 02:08:02;;;;;;;2.90;1.20;;;16.60;99.90;;;;;;5013061;28;20205;-76
2023/09/20 02:10:28;;;;;;;2.80;1.33;;;16.60;99.90;;;;;;5019623;28;20201;-78
2023/09/20 02:12:55;;;;;;;4.15;1.27;;;16.50;99.90;;;;;;5021531;28;20203;-77
2023/09/20 02:15:26;;;;;;;2.40;1.20;;;16.70;99.90;;;;;;5019935;28;20188;-75
2023/09/20 02:17:52;;;;;;;3.92;1.35;;;16.60;99.90;;;;;;5021926;28;20262;-77
2023/09/20 02:20:19;;;;;;;2.05;1.27;;;16.70;99.90;;;;;;5008514;28;20211;-77
2023/09/20 02:22:47;;;;;;;3.97;1.55;;;16.80;99.90;;;;;;5018015;28;20219;-77
2023/09/20 02:25:13;;;;;;;2.70;1.33;;;16.80;99.90;;;;;;5018631;28;20205;-78
2023/09/20 02:27:40;;;;;;;6.03;1.50;;;16.80;99.90;;;;;;5021896;28;20177;-77
2023/09/20 02:30:09;;;;;;;4.53;1.33;;;16.90;99.90;;;;;;5012475;28;20259;-78
2023/09/20 02:32:35;;;;;;;2.85;1.30;;;16.70;99.90;;;;;;5008698;28;20219;-78
2023/09/20 02:35:03;;;;;;;3.72;1.30;;;16.70;99.90;;;;;;5012238;28;20209;-78
2023/09/20 02:37:29;;;;;;;2.92;1.30;;;16.70;99.90;;;;;;5012517;28;20208;-78
2023/09/20 02:39:55;;;;;;;3.63;1.33;;;16.70;99.90;;;;;;5015591;28;20213;-77
2023/09/20 02:42:22;;;;;;;3.58;1.60;;;16.80;99.90;;;;;;5014515;28;20235;-77
2023/09/20 02:44:51;;;;;;;3.28;1.17;;;16.90;99.90;;;;;;5011473;28;20229;-74
2023/09/20 02:47:18;;;;;;;2.60;1.30;;;16.90;99.90;;;;;;5016630;28;20212;-77
2023/09/20 02:49:50;;;;;;;3.05;1.23;;;16.70;99.90;;;;;;5017067;28;20198;-77
2023/09/20 02:52:18;;;;;;;3.00;1.55;;;16.80;99.90;;;;;;5015563;28;20228;-78
2023/09/20 02:54:44;;;;;;;0.95;0.80;;;16.80;99.90;;;;;;5020359;28;20173;-77
2023/09/20 02:57:11;;;;;;;2.55;1.20;;;16.80;99.90;;;;;;5017984;28;20183;-77
2023/09/20 02:59:38;;;;;;;2.42;1.00;;;16.80;99.90;;;;;;5018556;28;20259;-77
2023/09/20 03:02:05;;;;;;;3.47;1.45;;;16.80;99.90;;;;;;5018152;28;20223;-78
2023/09/20 03:04:30;;;;;;;2.42;1.50;;;16.80;99.90;;;;;;5025170;28;20209;-76
2023/09/20 03:06:56;;;;;;;2.53;1.35;;;16.80;99.90;;;;;;5010367;28;20229;-77
2023/09/20 03:09:24;;;;;;;2.50;1.27;;;16.80;99.90;;;;;;5007438;28;20257;-79
2023/09/20 03:11:51;;;;;;;4.70;1.38;;;16.80;99.90;;;;;;5008887;28;20699;-77
2023/09/20 03:14:17;;;;;;;2.35;1.13;;;16.80;99.90;;;;;;5016979;28;20338;-78
2023/09/20 03:16:44;;;;;;;4.22;1.38;;;16.90;99.90;;;;;;5009851;28;20212;-78
2023/09/20 03:19:14;;;;;;;2.45;1.20;;;16.90;99.90;;;;;;5013301;28;20212;-77
2023/09/20 03:21:41;;;;;;;1.48;0.85;;;16.80;99.90;;;;;;5013224;28;20263;-78
2023/09/20 03:24:07;;;;;;;2.70;1.27;;;16.90;99.90;;;;;;5018559;28;20279;-78
2023/09/20 03:26:35;;;;;;;2.33;1.40;;;16.80;99.90;;;;;;5016752;28;20741;-77
2023/09/20 03:29:04;;;;;;;6.13;1.17;;;16.80;99.90;;;;;;5022203;28;20213;-77
2023/09/20 03:31:31;;;;;;;5.72;3.30;;;16.80;99.90;;;;;;5009874;28;20227;-78
2023/09/20 03:33:59;;;;;;;4.38;1.80;;;16.80;99.90;;;;;;5015497;28;20229;-78
2023/09/20 03:36:25;;;;;;;2.97;1.80;;;16.70;99.90;;;;;;5021539;28;20338;-78
2023/09/20 03:38:51;;;;;;;2.63;1.45;;;16.80;99.90;;;;;;5020835;28;20200;-77
2023/09/20 03:41:17;;;;;;;3.28;1.15;;;16.70;99.90;;;;;;5017797;28;20262;-78
2023/09/20 03:43:44;;;;;;;2.92;1.38;;;16.70;99.90;;;;;;5010542;28;20209;-77
2023/09/20 03:46:10;;;;;;;2.90;2.03;;;16.70;99.90;;;;;;5013260;28;20668;-78
2023/09/20 03:48:35;;;;;;;6.35;1.95;;;16.60;99.90;;;;;;5013138;28;20188;-80
2023/09/20 03:51:04;;;;;;;2.03;1.33;;;16.70;99.90;;;;;;5010924;28;20222;-77
2023/09/20 03:53:30;;;;;;;6.82;2.08;;;16.60;99.90;;;;;;5010371;28;20230;-76
2023/09/20 03:55:55;;;;;;;3.15;1.40;;;16.70;99.90;;;;;;5014668;28;20413;-78
2023/09/20 03:58:21;;;;;;;5.15;1.55;;;16.60;99.90;;;;;;5012147;28;20339;-77
2023/09/20 04:00:48;;;;;;;2.90;1.05;;;16.60;99.90;;;;;;5014815;28;20177;-78
2023/09/20 04:03:14;;;;;;;5.03;3.00;;;16.50;99.90;;;;;;5019891;28;20219;-78
2023/09/20 04:05:39;;;;;;;4.75;1.30;;;16.60;99.90;;;;;;5015589;28;20216;-77
2023/09/20 04:08:08;;;;;;;3.85;2.00;;;16.50;99.90;;;;;;5017781;28;20262;-77
2023/09/20 04:10:35;;;;;;;6.22;1.40;;;16.50;99.90;;;;;;5016786;28;20254;-77
2023/09/20 04:13:01;;;;;;;3.60;1.80;;;16.40;99.90;;;;;;5023643;28;20223;-77
2023/09/20 04:15:27;;;;;;;1.65;1.23;;;16.40;99.90;;;;;;5019853;28;20857;-77
2023/09/20 04:17:53;;;;;;;1.75;0.98;;;16.30;99.90;;;;;;5018176;28;20224;-77
2023/09/20 04:20:21;;;;;;;2.58;1.10;;;16.30;99.90;;;;;;5011497;28;20237;-77
2023/09/20 04:22:49;;;;;;;2.33;0.98;;;16.30;99.90;;;;;;5011069;28;20298;-77
2023/09/20 04:25:15;;;;;;;3.35;0.98;;;16.30;99.90;;;;;;5008787;28;20305;-77
2023/09/20 04:27:41;;;;;;;2.72;1.38;;;16.30;99.90;;;;;;5014504;28;20200;-77
2023/09/20 04:30:08;;;;;;;1.10;0.98;;;16.30;99.90;;;;;;5016064;28;20569;-76
2023/09/20 04:32:35;;;;;;;2.38;1.40;;;16.30;99.90;;;;;;5019322;28;20718;-77
2023/09/20 04:35:02;;;;;;;4.05;1.58;;;16.30;99.90;;;;;;5016064;28;20602;-78
2023/09/20 04:37:28;;;;;;;7.13;1.92;;;16.20;99.90;;;;;;5020109;28;20230;-77
2023/09/20 04:39:54;;;;;;;2.88;1.23;;;16.20;99.90;;;;;;5024771;28;20192;-77
2023/09/20 04:42:20;;;;;;;2.42;1.38;;;16.30;99.90;;;;;;5018582;28;20193;-74
2023/09/20 04:44:45;;;;;;;2.33;1.38;;;16.20;99.90;;;;;;5013416;28;20204;-77
2023/09/20 04:47:12;;;;;;;3.95;1.63;;;16.30;99.90;;;;;;5023380;28;20215;-78
2023/09/20 04:49:38;;;;;;;2.97;1.60;;;16.40;99.90;;;;;;5017067;28;20208;-77
2023/09/20 04:52:05;;;;;;;2.35;1.00;;;16.40;99.90;;;;;;5017283;28;20220;-77
2023/09/20 04:54:33;;;;;;;4.72;1.63;;;16.30;99.90;;;;;;5020409;28;20535;-78
2023/09/20 04:56:59;;;;;;;4.03;1.05;;;16.20;99.90;;;;;;5020138;28;20212;-77
2023/09/20 04:59:25;;;;;;;1.83;1.00;;;16.30;99.90;;;;;;5023793;28;20300;-76
2023/09/20 05:01:51;;;;;;;3.33;1.42;;;16.30;99.90;;;;;;5020312;28;20932;-77
2023/09/20 05:04:18;;;;;;;4.47;1.35;;;16.30;99.90;;;;;;5023886;28;20312;-77
2023/09/20 05:06:45;;;;;;;2.08;1.15;;;16.30;99.90;;;;;;5020023;28;20180;-78
2023/09/20 05:09:11;;;;;;;3.10;1.25;;;16.30;99.90;;;;;;5023889;28;20181;-77
2023/09/20 05:11:37;;;;;;;2.97;1.30;;;16.20;99.90;;;;;;5020384;28;20286;-75
2023/09/20 05:14:05;;;;;;;3.67;1.40;;;16.30;99.90;;;;;;5020821;28;20940;-77
2023/09/20 05:16:31;;;;;;;3.35;1.30;;;16.30;99.90;;;;;;5022337;28;20671;-77
2023/09/20 05:18:57;;;;;;;4.05;1.50;;;16.30;99.90;;;;;;5025513;28;20648;-78
2023/09/20 05:21:22;;;;;;;1.98;0.85;;;16.30;99.90;;;;;;5021946;28;20267;-78
2023/09/20 05:23:48;;;;;;;2.08;1.20;;;16.40;99.90;;;;;;5042060;23;20695;-79
2023/09/20 05:26:14;;;;;;;1.95;1.15;;;16.40;99.90;;;;;;5019973;28;20703;-80
2023/09/20 05:28:39;;;;;;;1.98;1.30;;;16.50;99.90;;;;;;5017607;28;20207;-79
2023/09/20 05:31:05;;;;;;;3.63;1.20;;;16.50;99.90;;;;;;5012564;28;20231;-80
2023/09/20 05:33:31;;;;;;;4.68;2.28;;;16.50;99.90;;;;;;5013287;28;20612;-79
2023/09/20 05:35:58;;;;;;;3.60;1.55;;;16.70;99.90;;;;;;4992960;28;20221;-80
2023/09/20 05:38:25;;;;;;;2.08;1.58;;;16.90;99.90;;;;;;4994437;28;20720;-80
2023/09/20 05:40:50;;;;;;;5.68;1.95;;;17.00;99.90;;;;;;4991517;28;20202;-79
2023/09/20 05:43:16;;;;;;;3.38;2.55;;;17.10;99.90;;;;;;4992136;28;20202;-78
2023/09/20 05:45:42;;;;;;;3.35;1.42;;;17.30;99.90;;;;;;4990608;28;20548;-80
2023/09/20 05:48:12;;;;;;;3.22;1.23;;;17.20;99.90;;;;;;4992932;28;20174;-80
2023/09/20 05:50:40;;;;;;;6.20;1.15;;;17.30;99.90;;;;;;4993578;28;20757;-80
2023/09/20 05:53:07;;;;;;;4.85;1.75;;;17.50;99.90;;;;;;4995188;28;20570;-80
2023/09/20 05:55:40;;;;;;;1.60;1.30;;;17.50;99.90;;;;;;4989768;28;20214;-80
2023/09/20 05:58:07;;;;;;;4.80;1.20;;;17.70;99.90;;;;;;4998221;28;20202;-80
2023/09/20 06:00:35;;;;;;;3.47;1.23;;;18.10;99.90;;;;;;4992307;28;20262;-81
2023/09/20 06:03:01;;;;;;;2.22;1.15;;;18.60;99.90;;;;;;4995148;28;20683;-80
2023/09/20 06:05:27;;;;;;;5.85;3.63;;;18.20;99.90;;;;;;5006519;28;20220;-80
2023/09/20 06:07:57;;;;;;;3.75;1.77;;;19.20;99.90;;;;;;5013400;28;20206;-80
2023/09/20 06:10:23;;;;;;;3.53;1.40;;;19.40;99.90;;;;;;4994168;28;20205;-80
2023/09/20 06:12:50;;;;;;;2.85;1.90;;;19.50;99.90;;;;;;4988436;28;20212;-78
2023/09/20 06:15:16;;;;;;;1.65;1.13;;;19.80;99.90;;;;;;4993620;28;20209;-79
2023/09/20 06:17:44;;;;;;;2.22;1.33;;;19.80;99.90;;;;;;5009779;28;20201;-80
2023/09/20 06:20:12;;;;;;;4.38;1.65;;;20.40;99.90;;;;;;4988868;28;20228;-80
2023/09/20 06:22:38;;;;;;;7.22;1.58;;;21.60;99.90;;;;;;4994159;28;20201;-79
2023/09/20 06:25:06;;;;;;;3.92;1.50;;;23.10;99.90;;;;;;4992049;28;20218;-80
2023/09/20 06:27:32;;;;;;;3.58;1.58;;;23.90;99.90;;;;;;4993090;28;20180;-80
2023/09/20 06:29:59;;;;;;;5.32;1.45;;;24.00;99.90;;;;;;4990304;28;20210;-80
2023/09/20 06:32:25;;;;;;;1.80;1.38;;;23.80;99.90;;;;;;4987268;28;20597;-80
2023/09/20 06:34:51;;;;;;;4.10;1.40;;;25.70;99.90;;;;;;4986316;28;20210;-78
2023/09/20 06:37:16;;;;;;;2.17;1.30;;;26.40;99.90;;;;;;4987356;28;20747;-79
2023/09/20 06:39:45;;;;;;;4.25;2.00;;;26.50;99.90;;;;;;4982397;28;20178;-80
2023/09/20 06:42:11;;;;;;;3.45;1.85;;;27.10;99.90;;;;;;4979867;28;20178;-78
2023/09/20 06:44:39;;;;;;;6.30;1.30;;;28.00;99.90;;;;;;4999779;28;20269;-79
2023/09/20 06:47:06;;;;;;;4.00;1.40;;;28.30;99.90;;;;;;4988179;28;20213;-80
2023/09/20 06:49:32;;;;;;;3.63;1.40;;;28.60;99.90;;;;;;4992675;28;20300;-79
2023/09/20 06:52:03;;;;;;;2.92;1.30;;;28.60;99.90;;;;;;4985886;28;20295;-79
2023/09/20 06:54:29;;;;;;;3.30;1.50;;;28.70;99.90;;;;;;4992609;28;20212;-79
2023/09/20 06:57:02;;;;;;;3.25;1.20;;;29.60;99.90;;;;;;5013883;28;20221;-80
2023/09/20 06:59:32;;;;;;;8.00;2.03;;;28.70;99.90;;;;;;4992084;28;20232;-78
2023/09/20 07:02:01;;;;;;;5.93;1.48;;;28.10;99.90;;;;;;4987314;28;20210;-79
2023/09/20 07:04:27;;;;;;;2.05;0.90;;;28.40;99.90;;;;;;4988416;28;20506;-80
2023/09/20 07:06:57;;;;;;;2.78;1.33;;;27.70;99.90;;;;;;5010083;28;20706;-80
2023/09/20 07:09:23;;;;;;;1.92;1.27;;;28.00;99.90;;;;;;4989535;28;20185;-80
2023/09/20 07:11:50;;;;;;;2.45;1.23;;;27.70;99.90;;;;;;5000373;28;20218;-77
2023/09/20 07:14:20;;;;;;;5.13;1.85;;;27.00;99.90;;;;;;4988118;28;20292;-79
2023/09/20 07:16:48;;;;;;;1.98;1.30;;;27.20;99.90;;;;;;5005265;28;20204;-79
2023/09/20 07:19:17;;;;;;;3.78;1.20;;;27.40;99.90;;;;;;5004474;28;20740;-79
2023/09/20 07:21:43;;;;;;;4.95;1.52;;;26.60;99.90;;;;;;5003901;28;20190;-78
2023/09/20 07:24:12;;;;;;;2.47;1.45;;;26.80;99.90;;;;;;4993911;28;20313;-79
2023/09/20 07:26:39;;;;;;;2.60;1.35;;;27.30;99.90;;;;;;4993317;28;20216;-79
2023/09/20 07:29:05;;;;;;;2.10;1.30;;;27.80;99.90;;;;;;5008844;28;20213;-79
2023/09/20 07:31:36;;;;;;;3.33;2.20;;;28.20;99.90;;;;;;4990231;28;20224;-79
2023/09/20 07:34:06;;;;;;;15.75;9.82;;;28.30;99.90;;;;;;4988233;28;20297;-78
2023/09/20 07:36:36;;;;;;;10.10;5.75;;;28.00;99.90;;;;;;4989141;28;20178;-78
2023/09/20 07:39:07;;;;;;;5.13;2.70;;;28.60;99.90;;;;;;4988801;28;20296;-78
2023/09/20 07:41:33;;;;;;;4.68;2.20;;;28.30;99.90;;;;;;4986567;28;20245;-79
2023/09/20 07:43:59;;;;;;;3.90;2.33;;;28.10;99.90;;;;;;4989871;28;20210;-78
2023/09/20 07:46:26;;;;;;;7.32;4.18;;;27.90;99.90;;;;;;4987196;28;20260;-79
2023/09/20 07:48:51;;;;;;;5.57;2.00;;;28.00;99.90;;;;;;4987874;28;20650;-78
2023/09/20 07:51:20;;;;;;;2.70;1.13;;;27.70;99.90;;;;;;4987007;28;20209;-79
2023/09/20 07:53:52;;;;;;;5.63;2.90;;;27.70;99.90;;;;;;4988088;28;20217;-79
2023/09/20 07:56:19;;;;;;;4.85;2.00;;;28.30;99.90;;;;;;4988374;28;20855;-78
2023/09/20 07:58:44;;;;;;;5.95;2.78;;;28.60;99.90;;;;;;4986366;28;20213;-79
2023/09/20 08:01:12;;;;;;;5.00;2.15;;;28.70;99.90;;;;;;5003782;28;20237;-79
2023/09/20 08:03:38;;;;;;;7.97;1.80;;;28.50;99.90;;;;;;4991217;28;20197;-79
2023/09/20 08:06:09;;;;;;;4.63;1.50;;;27.70;99.90;;;;;;4991324;28;20173;-78
2023/09/20 08:08:38;;;;;;;4.97;1.55;;;28.80;99.90;;;;;;4991289;28;20205;-79
2023/09/20 08:11:03;;;;;;;1.83;1.48;;;28.70;99.90;;;;;;4989774;28;20697;-78
2023/09/20 08:13:29;;;;;;;2.35;1.30;;;29.00;99.90;;;;;;4998360;28;20212;-79
2023/09/20 08:15:55;;;;;;;2.72;1.13;;;29.00;99.90;;;;;;5014435;28;20178;-77
2023/09/20 08:21:04;;;;;;;3.97;1.45;;;28.20;99.90;;;;;;4991414;28;20221;-79
2023/09/20 09:02:04;;;;;;;4.55;1.75;;;25.30;99.90;;;;;;4989691;28;20257;-79
2023/09/20 09:04:32;;;;;;;5.18;1.60;;;26.00;99.90;;;;;;4992337;28;20213;-80
2023/09/20 09:06:58;;;;;;;10.35;2.10;;;26.10;99.90;;;;;;4990974;28;20641;-80
2023/09/20 09:09:24;;;;;;;2.88;1.55;;;25.90;99.90;;;;;;5010442;28;20714;-78
2023/09/20 09:11:49;;;;;;;4.55;1.60;;;25.90;99.90;;;;;;4988118;28;20237;-79
2023/09/20 09:14:15;;;;;;;5.05;1.63;;;25.40;99.90;;;;;;4991812;28;20210;-78
2023/09/20 09:16:41;;;;;;;5.00;2.10;;;24.90;99.90;;;;;;4998236;28;20216;-80
2023/09/20 09:19:07;;;;;;;4.78;1.65;;;24.70;99.90;;;;;;4996572;28;20215;-79
2023/09/20 09:21:34;;;;;;;4.20;1.60;;;24.10;99.90;;;;;;4995818;28;20179;-78
2023/09/20 09:24:00;;;;;;;2.92;1.75;;;24.10;99.90;;;;;;4995337;28;20308;-78
2023/09/20 09:26:26;;;;;;;2.67;1.35;;;24.00;99.90;;;;;;4994859;28;20345;-79
2023/09/20 09:28:53;;;;;;;7.05;2.22;;;24.00;99.90;;;;;;4988230;28;20236;-78
2023/09/20 09:31:18;;;;;;;7.25;2.72;;;23.80;99.90;;;;;;4987738;28;20309;-81
2023/09/20 09:33:45;;;;;;;5.55;1.63;;;23.80;99.90;;;;;;5008541;28;20300;-79
2023/09/20 09:36:12;;;;;;;5.32;1.83;;;23.40;99.90;;;;;;4989781;28;20201;-79
2023/09/20 09:38:39;;;;;;;3.75;1.25;;;23.10;99.90;;;;;;4985925;28;20720;-79
2023/09/20 09:41:07;;;;;;;5.30;1.70;;;23.20;99.90;;;;;;4999568;28;20592;-79
2023/09/20 09:43:33;;;;;;;4.43;1.85;;;23.40;99.90;;;;;;4984587;28;20206;-79
2023/09/20 09:46:08;;;;;;;3.58;1.60;;;23.60;99.90;;;;;;4995061;28;20217;-78
2023/09/20 09:48:37;;;;;;;3.75;1.45;;;23.60;99.90;;;;;;5008772;28;20553;-79
2023/09/20 09:51:08;;;;;;;4.70;1.67;;;23.60;99.90;;;;;;4994001;28;20229;-79
2023/09/20 09:53:36;;;;;;;2.38;1.48;;;23.30;99.90;;;;;;4994082;28;20216;-78
2023/09/20 09:56:06;;;;;;;3.40;1.10;;;23.40;99.90;;;;;;4992811;28;20206;-79
2023/09/20 09:58:33;;;;;;;2.60;1.25;;;23.30;99.90;;;;;;5005694;28;20202;-78
2023/09/20 10:01:03;;;;;;;3.10;1.58;;;23.50;99.90;;;;;;5009403;28;20212;-79
2023/09/20 10:03:34;;;;;;;5.00;1.52;;;23.90;99.90;;;;;;4995843;28;20170;-81
2023/09/20 10:06:25;;;;;;;3.53;2.10;;;24.50;99.90;;;;;;4995101;28;20216;-80
2023/09/20 10:08:54;;;;;;;2.60;1.42;;;24.60;99.90;;;;;;5003487;28;20206;-78
2023/09/20 10:11:25;;;;;;;3.20;1.50;;;24.70;99.90;;;;;;5004221;28;20221;-80
2023/09/20 10:13:52;;;;;;;3.33;1.52;;;24.90;99.90;;;;;;5006354;28;20206;-79
2023/09/20 10:16:18;;;;;;;4.20;1.50;;;24.90;99.90;;;;;;4991681;28;20230;-80
2023/09/20 10:18:53;;;;;;;2.90;1.20;;;25.30;99.90;;;;;;4990145;28;20174;-79
2023/09/20 10:21:23;;;;;;;3.85;1.40;;;25.60;99.90;;;;;;4986441;28;20527;-80
2023/09/20 10:24:01;;;;;;;3.05;1.23;;;26.00;99.90;;;;;;4987851;28;20220;-78
2023/09/20 10:26:29;;;;;;;5.22;1.40;;;26.30;99.90;;;;;;4986009;28;20263;-79
2023/09/20 10:29:18;;;;;;;6.03;2.42;;;26.40;99.90;;;;;;4996943;28;20209;-79
2023/09/20 10:31:47;;;;;;;3.05;1.30;;;26.30;99.90;;;;;;4992936;28;20210;-80
2023/09/20 10:34:12;;;;;;;4.32;1.98;;;25.20;99.90;;;;;;4984620;28;20210;-79
2023/09/20 10:36:52;;;;;;;4.25;1.88;;;25.00;99.90;;;;;;4993378;28;20173;-79
2023/09/20 10:39:17;;;;;;;3.97;1.65;;;24.80;99.90;;;;;;4990309;28;20182;-80
2023/09/20 10:41:53;;;;;;;5.22;1.77;;;24.80;99.90;;;;;;5007085;28;20207;-80
2023/09/20 10:44:30;;;;;;;3.83;2.13;;;24.80;99.90;;;;;;5004507;28;20276;-79
2023/09/20 10:47:12;;;;;;;5.18;1.95;;;25.20;99.90;;;;;;4984098;28;20209;-79
2023/09/20 10:49:47;;;;;;;4.00;1.98;;;25.00;99.90;;;;;;5004323;28;20210;-79
2023/09/20 10:52:33;;;;;;;8.00;2.08;;;25.10;99.90;;;;;;4992982;28;20221;-78
2023/09/20 10:55:18;;;;;;;7.72;1.50;;;24.50;99.90;;;;;;4985110;28;20217;-80
2023/09/20 10:57:47;;;;;;;5.95;1.50;;;24.00;99.90;;;;;;4983832;28;20189;-81
2023/09/20 11:00:14;;;;;;;2.45;1.27;;;24.30;99.90;;;;;;4989847;28;20166;-81
2023/09/20 11:02:42;;;;;;;3.63;1.30;;;24.70;99.90;;;;;;5010690;28;20202;-81
2023/09/20 11:05:11;;;;;;;2.58;1.25;;;24.60;99.90;;;;;;4992368;28;20238;-81
2023/09/20 11:07:41;;;;;;;3.60;1.50;;;24.30;99.90;;;;;;5010963;28;20218;-81
2023/09/20 11:10:19;;;;;;;3.72;1.20;;;24.50;99.90;;;;;;4995488;28;20296;-81
2023/09/20 11:12:45;;;;;;;4.90;1.55;;;24.70;99.90;;;;;;4988847;28;20621;-82
2023/09/20 11:15:13;;;;;;;3.05;1.50;;;25.20;99.90;;;;;;4992222;28;20665;-79
2023/09/20 11:17:38;;;;;;;3.70;1.38;;;25.40;99.90;;;;;;4994130;28;20209;-81
2023/09/20 11:20:06;;;;;;;3.85;1.65;;;25.50;99.90;;;;;;4994771;28;20716;-79
2023/09/20 11:22:32;;;;;;;6.10;1.60;;;25.30;99.90;;;;;;4993860;28;20372;-80
2023/09/20 11:25:00;;;;;;;5.63;1.60;;;25.20;99.90;;;;;;4987443;28;20242;-81
2023/09/20 11:27:27;;;;;;;4.13;2.13;;;24.70;99.90;;;;;;4988153;28;20201;-80
2023/09/20 11:29:53;;;;;;;9.15;1.95;;;24.40;99.90;;;;;;5003275;28;20212;-82
2023/09/20 11:32:22;;;;;;;4.53;1.30;;;24.20;99.90;;;;;;5005357;28;20312;-79
2023/09/20 11:34:51;;;;;;;3.20;1.00;;;24.10;99.90;;;;;;4985872;28;20217;-80
2023/09/20 11:37:19;;;;;;;3.05;1.42;;;23.90;99.90;;;;;;4983293;28;20297;-79
2023/09/20 11:39:46;;;;;;;2.53;1.45;;;24.30;99.90;;;;;;4990529;28;20200;-81
2023/09/20 11:42:26;;;;;;;5.25;1.48;;;24.30;99.90;;;;;;4993503;28;20201;-80
2023/09/20 11:45:03;;;;;;;3.47;1.42;;;24.70;99.90;;;;;;4992827;28;20271;-80
2023/09/20 11:47:34;;;;;;;4.47;1.60;;;25.00;99.90;;;;;;4996829;28;20226;-80
2023/09/20 11:50:00;;;;;;;3.10;1.40;;;24.90;99.90;;;;;;4998444;28;20212;-80
2023/09/20 11:52:27;;;;;;;4.53;1.75;;;25.00;99.90;;;;;;4995446;28;20226;-81
2023/09/20 11:54:56;;;;;;;4.75;1.80;;;25.10;99.90;;;;;;4995789;28;20201;-80
2023/09/20 11:57:25;;;;;;;1.83;1.30;;;25.30;99.90;;;;;;5009711;28;20237;-81
2023/09/20 11:59:50;;;;;;;2.20;1.20;;;25.30;99.90;;;;;;4995049;28;20220;-79
2023/09/20 12:02:16;;;;;;;4.22;1.20;;;25.10;99.90;;;;;;4995926;28;20281;-78
2023/09/20 12:04:43;;;;;;;3.72;1.50;;;25.10;99.90;;;;;;4999078;28;20210;-80
2023/09/20 12:07:09;;;;;;;3.97;1.05;;;25.10;99.90;;;;;;5014602;28;20225;-81
2023/09/20 12:09:36;;;;;;;3.70;1.40;;;25.10;99.90;;;;;;4993853;28;20226;-80
2023/09/20 12:12:05;;;;;;;3.83;1.40;;;24.90;99.90;;;;;;4991089;28;20264;-81
2023/09/20 12:14:33;;;;;;;7.82;2.55;;;25.10;99.90;;;;;;5003944;28;20269;-81
2023/09/20 12:16:59;;;;;;;4.65;2.28;;;24.80;99.90;;;;;;4987169;28;20210;-81
2023/09/20 12:19:25;;;;;;;6.03;1.60;;;24.90;99.90;;;;;;4997780;28;20212;-81
2023/09/20 12:21:51;;;;;;;5.32;1.70;;;25.00;99.90;;;;;;4998990;28;20188;-80
2023/09/20 12:24:17;;;;;;;5.68;1.35;;;25.20;99.90;;;;;;4999179;28;20223;-79
2023/09/20 12:26:43;;;;;;;2.63;1.33;;;25.20;99.90;;;;;;4996525;28;20296;-81
2023/09/20 12:29:08;;;;;;;6.80;1.52;;;25.30;99.90;;;;;;4999032;28;20230;-81
2023/09/20 12:31:34;;;;;;;4.43;1.35;;;25.40;99.90;;;;;;4996514;28;20300;-81
2023/09/20 12:34:03;;;;;;;8.40;4.43;;;25.40;99.90;;;;;;5000010;28;20592;-80
2023/09/20 12:36:30;;;;;;;5.07;2.13;;;25.50;99.90;;;;;;5009747;28;20210;-81
2023/09/20 12:38:56;;;;;;;4.35;1.42;;;25.50;99.90;;;;;;4997806;28;20221;-81
2023/09/20 12:41:24;;;;;;;3.85;1.50;;;25.30;99.90;;;;;;5009233;28;20210;-81
2023/09/20 12:43:49;;;;;;;4.35;1.58;;;25.10;99.90;;;;;;4994203;28;20658;-80
2023/09/20 12:46:16;;;;;;;2.75;1.20;;;25.30;99.90;;;;;;4990919;28;20210;-82
2023/09/20 12:48:44;;;;;;;4.88;2.03;;;25.40;99.90;;;;;;5010989;28;20186;-80
2023/09/20 12:51:12;;;;;;;5.68;3.00;;;25.50;99.90;;;;;;4989847;28;20197;-81
2023/09/20 12:53:38;;;;;;;1.77;1.30;;;25.60;99.90;;;;;;5005299;28;20210;-82
2023/09/20 12:56:05;;;;;;;3.90;1.58;;;25.70;99.90;;;;;;4995513;28;20584;-80
2023/09/20 12:58:31;;;;;;;4.50;1.20;;;25.30;99.90;;;;;;4997642;28;20210;-82
2023/09/20 13:00:57;;;;;;;4.57;1.48;;;25.00;99.90;;;;;;4997208;28;20756;-80
2023/09/20 13:03:24;;;;;;;6.68;1.95;;;25.00;99.90;;;;;;4993410;28;20177;-81
2023/09/20 13:05:50;;;;;;;4.15;1.60;;;25.10;99.90;;;;;;4993810;28;20356;-79
2023/09/20 13:08:19;;;;;;;4.32;2.10;;;24.90;99.90;;;;;;5011675;28;20229;-82
2023/09/20 13:10:45;;;;;;;2.22;1.00;;;25.00;99.90;;;;;;4993898;28;20293;-81
2023/09/20 13:13:10;;;;;;;3.15;1.63;;;25.10;99.90;;;;;;4994074;28;20249;-82
2023/09/20 13:15:42;;;;;;;4.20;1.30;;;25.10;99.90;;;;;;5014580;28;20229;-81
2023/09/20 13:18:10;;;;;;;4.32;1.50;;;25.00;99.90;;;;;;5014534;28;20185;-81
2023/09/20 13:20:42;;;;;;;3.67;1.55;;;24.90;99.90;;;;;;5010978;28;20651;-81
2023/09/20 13:23:08;;;;;;;1.92;1.20;;;24.80;99.90;;;;;;4994628;28;20293;-81
2023/09/20 13:25:35;;;;;;;4.22;1.20;;;24.60;99.90;;;;;;4998377;28;20222;-80
2023/09/20 13:28:00;;;;;;;2.85;1.17;;;24.70;99.90;;;;;;4999430;28;20335;-81